createdAt,value
2023-01-25T00:01:24.027Z,42.13
2023-01-25T00:03:52.465Z,38.70
2023-01-25T00:06:22.505Z,40.07
2023-01-25T00:08:51.511Z,43.00
2023-01-25T00:11:20.422Z,38.80
2023-01-25T00:13:48.853Z,43.23
2023-01-25T00:16:17.654Z,41.90
2023-01-25T00:18:46.041Z,41.60
2023-01-25T00:21:15.790Z,42.33
2023-01-25T00:23:45.495Z,45.27
2023-01-25T00:26:13.874Z,40.53
2023-01-25T00:28:42.324Z,42.53
2023-01-25T00:31:18.589Z,47.97
2023-01-25T00:33:53.666Z,41.53
2023-01-25T00:36:43.104Z,40.50
2023-01-25T00:39:15.241Z,43.33
2023-01-25T00:41:45.139Z,43.47
2023-01-25T00:44:13.470Z,46.00
2023-01-25T00:46:41.805Z,44.50
2023-01-25T00:49:22.031Z,45.50
2023-01-25T00:51:50.528Z,40.30
2023-01-25T00:54:21.001Z,42.50
2023-01-25T00:56:49.408Z,43.20
2023-01-25T00:59:17.957Z,43.43
2023-01-25T01:01:46.315Z,40.07
2023-01-25T01:04:14.903Z,42.47
2023-01-25T01:06:44.381Z,48.37
2023-01-25T01:09:16.107Z,46.97
2023-01-25T01:11:45.969Z,44.23
2023-01-25T01:14:15.628Z,49.07
2023-01-25T01:16:44.188Z,45.60
2023-01-25T01:19:12.964Z,48.40
2023-01-25T01:21:42.785Z,51.27
2023-01-25T01:24:12.353Z,48.53
2023-01-25T01:26:40.816Z,50.90
2023-01-25T01:29:10.691Z,49.63
2023-01-25T01:31:39.103Z,52.50
2023-01-25T01:34:07.733Z,52.07
2023-01-25T01:36:36.129Z,48.37
2023-01-25T01:39:04.740Z,48.93
2023-01-25T01:41:33.003Z,49.67
2023-01-25T01:44:01.423Z,52.43
2023-01-25T01:46:37.252Z,53.40
2023-01-25T01:49:11.847Z,53.77
2023-01-25T01:51:48.581Z,50.37
2023-01-25T01:54:24.215Z,51.30
2023-01-25T01:56:59.864Z,52.67
2023-01-25T01:59:35.485Z,51.07
2023-01-25T02:02:05.725Z,51.63
2023-01-25T02:04:34.894Z,50.67
2023-01-25T02:07:11.276Z,55.23
2023-01-25T02:09:39.695Z,51.53
2023-01-25T02:12:10.928Z,53.53
2023-01-25T02:14:42.767Z,58.20
2023-01-25T02:17:13.205Z,54.20
2023-01-25T02:19:52.701Z,62.43
2023-01-25T02:22:32.344Z,52.93
2023-01-25T02:25:07.808Z,55.23
2023-01-25T02:27:40.849Z,54.43
2023-01-25T02:30:11.441Z,52.93
2023-01-25T02:32:39.919Z,53.00
2023-01-25T02:35:15.875Z,56.40
2023-01-25T02:37:44.295Z,52.17
2023-01-25T02:40:14.684Z,54.40
2023-01-25T02:42:45.236Z,56.17
2023-01-25T02:45:19.053Z,57.70
2023-01-25T02:47:48.672Z,56.53
2023-01-25T02:50:17.979Z,58.83
2023-01-25T02:52:46.522Z,57.50
2023-01-25T02:55:16.294Z,57.30
2023-01-25T02:57:44.834Z,56.60
2023-01-25T03:00:14.573Z,56.07
2023-01-25T03:02:43.086Z,62.00
2023-01-25T03:05:11.634Z,57.93
2023-01-25T03:07:39.949Z,62.53
2023-01-25T03:10:10.220Z,61.57
2023-01-25T03:12:40.099Z,57.33
2023-01-25T03:15:10.613Z,57.67
2023-01-25T03:17:39.184Z,63.03
2023-01-25T03:20:09.116Z,64.20
2023-01-25T03:22:48.940Z,64.93
2023-01-25T03:25:17.486Z,59.87
2023-01-25T03:27:47.499Z,58.70
2023-01-25T03:30:16.450Z,62.27
2023-01-25T03:32:45.035Z,61.63
2023-01-25T03:35:13.425Z,57.80
2023-01-25T03:37:42.026Z,59.83
2023-01-25T03:40:12.690Z,61.77
2023-01-25T03:42:41.042Z,61.23
2023-01-25T03:45:14.440Z,59.07
2023-01-25T03:47:43.333Z,61.07
2023-01-25T03:50:12.585Z,64.50
2023-01-25T03:52:43.034Z,61.13
2023-01-25T03:55:11.691Z,62.73
2023-01-25T03:57:40.104Z,61.83
2023-01-25T04:00:13.005Z,61.90
2023-01-25T04:02:41.457Z,57.83
2023-01-25T04:05:11.066Z,56.23
2023-01-25T04:07:39.766Z,56.53
2023-01-25T04:10:09.877Z,63.63
2023-01-25T04:12:38.388Z,59.87
2023-01-25T04:15:08.629Z,66.37
2023-01-25T04:17:38.468Z,58.20
2023-01-25T04:20:08.651Z,60.43
2023-01-25T04:22:37.067Z,67.13
2023-01-25T04:25:06.006Z,64.80
2023-01-25T04:27:34.395Z,63.97
2023-01-25T04:30:02.783Z,66.20
2023-01-25T04:32:31.213Z,62.23
2023-01-25T04:35:01.061Z,61.40
2023-01-25T04:37:29.924Z,66.43
2023-01-25T04:39:58.491Z,60.57
2023-01-25T04:42:26.876Z,65.40
2023-01-25T04:44:55.251Z,65.93
2023-01-25T04:47:23.775Z,59.80
2023-01-25T04:49:52.109Z,67.27
2023-01-25T04:52:21.847Z,67.77
2023-01-25T04:54:50.167Z,65.17
2023-01-25T04:57:18.510Z,64.97
2023-01-25T04:59:46.902Z,68.03
2023-01-25T05:02:15.485Z,66.70
2023-01-25T05:04:43.956Z,68.27
2023-01-25T05:07:12.334Z,71.93
2023-01-25T05:09:42.019Z,73.47
2023-01-25T05:12:13.618Z,64.10
2023-01-25T05:14:42.068Z,70.27
2023-01-25T05:17:11.332Z,70.13
2023-01-25T05:19:39.630Z,69.67
2023-01-25T05:22:11.560Z,68.90
2023-01-25T05:24:41.988Z,70.87
2023-01-25T05:27:10.834Z,71.47
2023-01-25T05:29:41.702Z,78.60
2023-01-25T05:32:12.428Z,67.23
2023-01-25T05:34:41.829Z,73.87
2023-01-25T05:37:12.196Z,69.53
2023-01-25T05:39:42.875Z,75.23
2023-01-25T05:42:13.828Z,71.87
2023-01-25T05:44:42.846Z,71.00
2023-01-25T05:47:15.283Z,71.63
2023-01-25T05:49:44.323Z,75.83
2023-01-25T05:52:15.018Z,74.63
2023-01-25T05:54:45.118Z,76.47
2023-01-25T05:57:15.638Z,73.63
2023-01-25T05:59:44.356Z,75.87
2023-01-25T06:02:12.755Z,80.40
2023-01-25T06:04:41.225Z,85.90
2023-01-25T06:07:09.728Z,79.07
2023-01-25T06:09:38.053Z,76.20
2023-01-25T06:12:08.269Z,75.87
2023-01-25T06:14:36.597Z,74.63
2023-01-25T06:17:04.943Z,72.97
2023-01-25T06:19:33.291Z,74.73
2023-01-25T06:22:01.635Z,76.83
2023-01-25T06:24:30.322Z,71.67
2023-01-25T06:26:58.685Z,73.47
2023-01-25T06:29:28.410Z,77.83
2023-01-25T06:31:56.954Z,79.63
2023-01-25T06:34:25.420Z,75.23
2023-01-25T06:36:53.828Z,72.20
2023-01-25T06:39:22.349Z,72.50
2023-01-25T06:41:50.854Z,69.93
2023-01-25T06:44:19.134Z,77.40
2023-01-25T06:46:49.029Z,79.53
2023-01-25T06:49:17.482Z,75.87
2023-01-25T06:51:45.853Z,70.13
2023-01-25T06:54:14.258Z,74.73
2023-01-25T06:56:42.941Z,73.23
2023-01-25T06:59:11.470Z,77.43
2023-01-25T07:01:39.931Z,76.57
2023-01-25T07:04:12.695Z,71.10
2023-01-25T07:06:41.373Z,73.67
2023-01-25T07:09:12.963Z,73.27
2023-01-25T07:11:41.339Z,75.03
2023-01-25T07:14:09.671Z,74.87
2023-01-25T07:16:38.688Z,78.00
2023-01-25T07:19:09.259Z,73.33
2023-01-25T07:21:37.703Z,74.17
2023-01-25T07:24:07.415Z,77.93
2023-01-25T07:26:35.855Z,71.57
2023-01-25T07:29:04.307Z,76.67
2023-01-25T07:31:32.751Z,79.20
2023-01-25T07:34:01.363Z,71.37
2023-01-25T07:36:32.308Z,72.17
2023-01-25T07:39:00.821Z,70.20
2023-01-25T07:41:29.618Z,72.80
2023-01-25T07:43:57.974Z,71.73
2023-01-25T07:46:26.380Z,71.27
2023-01-25T07:48:55.111Z,66.57
2023-01-25T07:51:25.100Z,66.07
2023-01-25T07:53:57.415Z,63.40
2023-01-25T07:56:27.726Z,62.83
2023-01-25T07:58:57.489Z,61.33
2023-01-25T08:01:28.456Z,67.53
2023-01-25T08:03:57.781Z,59.63
2023-01-25T08:06:30.792Z,64.53
2023-01-25T08:09:01.042Z,60.23
2023-01-25T08:11:32.873Z,60.10
2023-01-25T08:14:02.054Z,61.60
2023-01-25T08:16:32.413Z,59.93
2023-01-25T08:19:03.208Z,57.83
2023-01-25T08:21:34.023Z,59.50
2023-01-25T08:24:06.435Z,66.67
2023-01-25T08:26:35.869Z,59.70
2023-01-25T08:29:04.733Z,62.30
2023-01-25T08:31:35.618Z,59.17
2023-01-25T08:34:04.913Z,56.30
2023-01-25T08:36:33.878Z,59.13
2023-01-25T08:39:07.185Z,63.90
2023-01-25T08:41:36.694Z,59.00
2023-01-25T08:44:05.663Z,55.33
2023-01-25T08:46:35.281Z,58.07
2023-01-25T08:49:04.754Z,58.83
2023-01-25T08:51:34.568Z,58.57
2023-01-25T08:54:09.944Z,59.17
2023-01-25T08:56:39.147Z,60.67
2023-01-25T08:59:08.299Z,62.43
2023-01-25T09:01:36.681Z,62.00
2023-01-25T09:04:05.206Z,57.97
2023-01-25T09:06:35.141Z,58.70
2023-01-25T09:09:04.713Z,65.67
2023-01-25T09:11:37.140Z,62.37
2023-01-25T09:14:05.887Z,62.60
2023-01-25T09:16:35.553Z,67.20
2023-01-25T09:19:05.887Z,68.90
2023-01-25T09:21:35.170Z,60.87
2023-01-25T09:24:06.729Z,60.80
2023-01-25T09:26:40.244Z,58.23
2023-01-25T09:29:11.527Z,66.73
2023-01-25T09:31:43.678Z,60.57
2023-01-25T09:34:13.262Z,65.37
2023-01-25T09:36:41.684Z,64.83
2023-01-25T09:39:13.132Z,63.33
2023-01-25T09:42:25.262Z,64.90
2023-01-25T09:45:13.258Z,60.40
2023-01-25T09:47:49.704Z,61.00
2023-01-25T09:50:34.195Z,63.23
2023-01-25T09:53:35.064Z,63.97
2023-01-25T09:56:10.321Z,63.43
2023-01-25T09:58:44.997Z,64.20
2023-01-25T10:01:36.717Z,63.47
2023-01-25T10:04:13.167Z,60.30
2023-01-25T10:06:55.228Z,56.33
2023-01-25T10:09:38.932Z,63.10
2023-01-25T10:12:17.487Z,62.97
2023-01-25T10:14:47.676Z,62.80
2023-01-25T10:17:28.104Z,61.87
2023-01-25T10:20:16.466Z,65.67
2023-01-25T10:22:52.041Z,65.43
2023-01-25T10:25:29.441Z,69.30
2023-01-25T10:28:18.669Z,65.87
2023-01-25T10:30:58.212Z,66.90
2023-01-25T10:33:29.726Z,65.17
2023-01-25T10:36:00.168Z,67.17
2023-01-25T10:38:35.395Z,65.50
2023-01-25T10:41:09.317Z,64.43
2023-01-25T10:43:37.831Z,70.07
2023-01-25T10:46:21.750Z,71.20
2023-01-25T10:48:50.812Z,66.87
2023-01-25T10:51:32.426Z,67.60
2023-01-25T10:54:04.219Z,74.43
2023-01-25T10:56:36.201Z,67.87
2023-01-25T10:59:16.869Z,67.73
2023-01-25T11:01:46.841Z,65.60
2023-01-25T11:04:35.140Z,63.10
2023-01-25T11:07:06.205Z,64.43
2023-01-25T11:09:40.607Z,59.77
2023-01-25T11:12:20.140Z,60.83
2023-01-25T11:14:50.915Z,61.97
2023-01-25T11:17:27.967Z,60.37
2023-01-25T11:20:17.352Z,63.17
2023-01-25T11:22:57.420Z,59.67
2023-01-25T11:25:32.711Z,59.47
2023-01-25T11:28:19.805Z,61.23
2023-01-25T11:30:49.325Z,63.90
2023-01-25T11:33:22.472Z,61.37
2023-01-25T11:36:28.917Z,58.07
2023-01-25T11:39:14.401Z,56.03
2023-01-25T11:41:58.485Z,59.97
2023-01-25T11:45:03.555Z,59.97
2023-01-25T11:47:55.921Z,57.90
2023-01-25T11:50:35.643Z,66.57
2023-01-25T11:53:45.010Z,58.90
2023-01-25T11:56:26.416Z,61.40
2023-01-25T11:59:10.998Z,61.13
2023-01-25T12:01:57.508Z,65.53
2023-01-25T12:04:59.767Z,57.57
2023-01-25T12:07:42.866Z,58.07
2023-01-25T12:10:25.275Z,63.43
2023-01-25T12:13:01.905Z,56.87
2023-01-25T12:16:03.386Z,54.73
2023-01-25T12:19:03.276Z,60.90
2023-01-25T12:21:59.954Z,57.20
2023-01-25T12:24:45.385Z,54.83
2023-01-25T12:27:32.253Z,59.00
2023-01-25T12:30:13.745Z,55.63
2023-01-25T12:32:50.126Z,57.17
2023-01-25T12:35:39.648Z,54.50
2023-01-25T12:38:17.537Z,63.27
2023-01-25T12:40:55.855Z,61.67
2023-01-25T12:43:31.598Z,57.30
2023-01-25T12:46:03.720Z,60.00
2023-01-25T12:48:37.547Z,58.13
2023-01-25T12:51:06.675Z,61.37
2023-01-25T12:53:39.852Z,60.73
2023-01-25T12:56:22.565Z,54.50
2023-01-25T12:58:56.114Z,60.50
2023-01-25T13:01:33.670Z,54.70
2023-01-25T13:04:21.141Z,56.67
2023-01-25T13:06:55.000Z,54.13
2023-01-25T13:09:31.493Z,60.17
2023-01-25T13:12:04.908Z,54.20
2023-01-25T13:14:39.228Z,56.57
2023-01-25T13:17:23.575Z,50.47
2023-01-25T13:19:54.944Z,56.47
2023-01-25T13:22:59.065Z,60.20
2023-01-25T13:25:28.610Z,53.07
2023-01-25T13:28:45.582Z,55.07
2023-01-25T13:31:53.486Z,61.27
2023-01-25T13:34:58.779Z,59.13
2023-01-25T13:37:29.824Z,54.00
2023-01-25T13:40:06.347Z,59.83
2023-01-25T13:42:37.105Z,59.20
2023-01-25T13:45:18.501Z,56.43
2023-01-25T13:48:01.561Z,58.07
2023-01-25T13:50:36.377Z,59.83
2023-01-25T13:53:08.004Z,58.17
2023-01-25T13:55:43.444Z,60.90
2023-01-25T13:58:16.418Z,69.53
2023-01-25T14:00:54.568Z,61.67
2023-01-25T14:03:27.900Z,67.20
2023-01-25T14:05:59.334Z,58.67
2023-01-25T14:08:28.559Z,59.97
2023-01-25T14:10:59.698Z,66.37
2023-01-25T14:13:28.024Z,68.60
2023-01-25T14:16:00.950Z,62.17
2023-01-25T14:18:32.310Z,65.43
2023-01-25T14:21:17.534Z,66.67
2023-01-25T14:23:46.737Z,68.90
2023-01-25T14:26:27.345Z,66.80
2023-01-25T14:29:01.934Z,61.67
2023-01-25T14:31:38.119Z,61.63
2023-01-25T14:34:08.625Z,63.47
2023-01-25T14:36:37.188Z,59.43
2023-01-25T14:39:18.713Z,75.27
2023-01-25T14:42:00.994Z,61.50
2023-01-25T14:44:31.131Z,68.73
2023-01-25T14:47:36.550Z,71.90
2023-01-25T14:50:32.097Z,69.57
2023-01-25T14:53:07.725Z,61.30
2023-01-25T14:55:37.884Z,67.13
2023-01-25T14:58:08.560Z,67.87
2023-01-25T15:00:38.770Z,62.67
2023-01-25T15:03:17.271Z,69.53
2023-01-25T15:05:48.080Z,66.40
2023-01-25T15:08:28.954Z,66.10
2023-01-25T15:11:19.012Z,71.23
2023-01-25T15:13:48.079Z,68.00
2023-01-25T15:16:17.182Z,74.27
2023-01-25T15:18:50.680Z,74.83
2023-01-25T15:21:20.609Z,72.47
2023-01-25T15:23:50.411Z,81.33
2023-01-25T15:26:24.297Z,79.57
2023-01-25T15:28:55.512Z,80.60
2023-01-25T15:31:28.408Z,74.80
2023-01-25T15:33:59.022Z,67.47
2023-01-25T15:36:28.106Z,67.93
2023-01-25T15:38:56.763Z,66.30
2023-01-25T15:41:25.294Z,75.00
2023-01-25T15:43:53.862Z,64.40
2023-01-25T15:46:26.118Z,71.97
2023-01-25T15:48:55.350Z,70.90
2023-01-25T15:51:25.350Z,73.30
2023-01-25T15:53:54.140Z,70.67
2023-01-25T15:56:24.778Z,74.37
2023-01-25T15:58:55.522Z,60.33
2023-01-25T16:01:27.382Z,75.27
2023-01-25T16:03:56.693Z,75.10
2023-01-25T16:06:40.727Z,72.33
2023-01-25T16:09:22.078Z,82.50
2023-01-25T16:11:53.665Z,72.43
2023-01-25T16:14:23.715Z,72.67
2023-01-25T16:16:54.285Z,73.13
2023-01-25T16:19:24.952Z,75.30
2023-01-25T16:21:54.941Z,69.87
2023-01-25T16:24:23.353Z,67.20
2023-01-25T16:26:55.988Z,82.30
2023-01-25T16:29:24.494Z,70.60
2023-01-25T16:31:54.522Z,75.90
2023-01-25T16:34:23.293Z,77.93
2023-01-25T16:36:52.903Z,81.67
2023-01-25T16:39:26.448Z,79.50
2023-01-25T16:41:55.894Z,75.03
2023-01-25T16:44:24.417Z,75.37
2023-01-25T16:46:52.790Z,71.13
2023-01-25T16:49:24.537Z,73.67
2023-01-25T16:51:53.304Z,70.43
2023-01-25T16:54:23.984Z,73.77
2023-01-25T16:56:53.753Z,75.13
2023-01-25T16:59:27.588Z,80.63
2023-01-25T17:01:56.888Z,76.87
2023-01-25T17:04:25.301Z,80.67
2023-01-25T17:06:54.307Z,71.97
2023-01-25T17:09:25.590Z,76.40
2023-01-25T17:11:54.904Z,75.67
2023-01-25T17:14:24.548Z,78.17
2023-01-25T17:16:55.945Z,77.40
2023-01-25T17:19:25.152Z,82.27
2023-01-25T17:21:53.568Z,73.37
2023-01-25T17:24:23.830Z,85.43
2023-01-25T17:26:56.053Z,90.53
2023-01-25T17:29:24.607Z,85.53
2023-01-25T17:31:53.177Z,79.97
2023-01-25T17:34:22.114Z,68.67
2023-01-25T17:36:52.843Z,84.27
2023-01-25T17:39:24.927Z,82.00
2023-01-25T17:41:53.713Z,85.43
2023-01-25T17:44:24.745Z,75.07
2023-01-25T17:46:53.604Z,79.60
2023-01-25T17:49:22.629Z,75.73
2023-01-25T17:51:51.313Z,86.23
2023-01-25T17:54:19.756Z,82.73
2023-01-25T17:56:49.893Z,91.30
2023-01-25T17:59:18.510Z,89.17
2023-01-25T18:01:46.954Z,82.03
2023-01-25T18:04:17.690Z,78.40
2023-01-25T18:06:46.498Z,87.20
2023-01-25T18:09:15.050Z,90.67
2023-01-25T18:11:43.533Z,94.97
2023-01-25T18:14:16.956Z,85.63
2023-01-25T18:16:45.623Z,81.60
2023-01-25T18:19:14.699Z,90.97
2023-01-25T18:21:43.645Z,88.57
2023-01-25T18:24:32.226Z,103.20
2023-01-25T18:27:06.118Z,97.67
2023-01-25T18:29:47.980Z,91.97
2023-01-25T18:32:19.396Z,92.70
2023-01-25T18:34:48.173Z,96.67
2023-01-25T18:37:20.745Z,99.33
2023-01-25T18:39:51.490Z,94.67
2023-01-25T18:42:21.515Z,97.07
2023-01-25T18:44:51.658Z,107.00
2023-01-25T18:47:22.569Z,95.87
2023-01-25T18:49:52.903Z,94.97
2023-01-25T18:52:23.527Z,98.93
2023-01-25T18:54:52.664Z,88.90
2023-01-25T18:57:21.532Z,98.90
2023-01-25T18:59:51.444Z,100.87
2023-01-25T19:02:20.837Z,108.87
2023-01-25T19:04:49.954Z,102.77
2023-01-25T19:07:18.579Z,99.80
2023-01-25T19:09:47.975Z,102.50
2023-01-25T19:12:16.441Z,102.30
2023-01-25T19:14:44.831Z,102.60
2023-01-25T19:17:14.530Z,106.97
2023-01-25T19:19:44.114Z,100.73
2023-01-25T19:22:12.570Z,91.70
2023-01-25T19:24:40.830Z,110.00
2023-01-25T19:27:09.141Z,95.17
2023-01-25T19:29:39.237Z,99.03
2023-01-25T19:32:10.724Z,108.33
2023-01-25T19:34:41.865Z,104.80
2023-01-25T19:37:10.292Z,93.27
2023-01-25T19:39:38.575Z,97.63
2023-01-25T19:42:07.068Z,103.60
2023-01-25T19:44:35.579Z,112.43
2023-01-25T19:47:04.426Z,94.63
2023-01-25T19:49:32.787Z,99.27
2023-01-25T19:52:02.549Z,94.20
2023-01-25T19:54:31.277Z,105.97
2023-01-25T19:56:59.637Z,108.67
2023-01-25T19:59:29.097Z,95.87
2023-01-25T20:01:57.879Z,104.97
2023-01-25T20:04:26.282Z,101.27
2023-01-25T20:06:54.711Z,102.47
2023-01-25T20:09:28.071Z,102.87
2023-01-25T20:11:57.903Z,107.27
2023-01-25T20:14:26.507Z,104.57
2023-01-25T20:16:55.009Z,101.70
2023-01-25T20:19:23.408Z,101.43
2023-01-25T20:21:51.847Z,101.77
2023-01-25T20:24:20.292Z,109.17
2023-01-25T20:26:51.446Z,98.77
2023-01-25T20:29:21.589Z,114.60
2023-01-25T20:31:50.225Z,106.43
2023-01-25T20:34:20.612Z,109.60
2023-01-25T20:36:49.629Z,112.37
2023-01-25T20:39:21.052Z,111.80
2023-01-25T20:41:53.816Z,105.20
2023-01-25T20:44:22.946Z,112.47
2023-01-25T20:46:54.447Z,113.37
2023-01-25T20:49:23.161Z,112.30
2023-01-25T20:51:51.759Z,99.93
2023-01-25T20:54:21.757Z,101.17
2023-01-25T20:56:51.547Z,115.17
2023-01-25T20:59:19.822Z,99.70
2023-01-25T21:01:48.209Z,95.63
2023-01-25T21:04:16.692Z,112.77
2023-01-25T21:06:45.011Z,105.33
2023-01-25T21:09:13.790Z,102.60
2023-01-25T21:11:42.457Z,101.53
2023-01-25T21:14:12.343Z,111.60
2023-01-25T21:16:40.821Z,89.37
2023-01-25T21:19:09.649Z,101.23
2023-01-25T21:21:38.590Z,98.30
2023-01-25T21:24:08.534Z,99.37
2023-01-25T21:26:38.541Z,97.50
2023-01-25T21:29:08.309Z,93.27
2023-01-25T21:31:42.552Z,100.30
2023-01-25T21:34:11.826Z,98.10
2023-01-25T21:36:40.471Z,92.10
2023-01-25T21:39:09.638Z,100.10
2023-01-25T21:41:38.484Z,94.17
2023-01-25T21:44:25.597Z,82.90
2023-01-25T21:47:23.621Z,84.70
2023-01-25T21:50:02.696Z,89.20
2023-01-25T21:52:31.269Z,90.80
2023-01-25T21:54:59.570Z,86.27
2023-01-25T21:57:28.123Z,81.30
2023-01-25T21:59:57.020Z,79.27
2023-01-25T22:02:26.869Z,77.43
2023-01-25T22:04:55.301Z,71.13
2023-01-25T22:07:24.486Z,75.90
2023-01-25T22:09:52.978Z,72.53
2023-01-25T22:12:21.352Z,75.97
2023-01-25T22:14:49.674Z,66.73
2023-01-25T22:17:19.393Z,62.90
2023-01-25T22:19:49.206Z,72.77
2023-01-25T22:22:18.065Z,69.17
2023-01-25T22:24:47.682Z,69.63
2023-01-25T22:27:47.631Z,68.27
2023-01-25T22:30:16.096Z,72.17
2023-01-25T22:32:44.882Z,74.10
2023-01-25T22:35:14.643Z,67.63
2023-01-25T22:37:42.964Z,60.43
2023-01-25T22:40:13.528Z,71.83
2023-01-25T22:42:41.978Z,57.43
2023-01-25T22:45:11.175Z,61.93
2023-01-25T22:47:41.937Z,72.27
2023-01-25T22:50:12.653Z,69.40
2023-01-25T22:52:42.467Z,72.00
2023-01-25T22:55:11.318Z,72.33
2023-01-25T22:57:39.627Z,65.60
2023-01-25T23:00:12.189Z,67.30
2023-01-25T23:02:40.657Z,60.30
2023-01-25T23:05:09.799Z,68.77
2023-01-25T23:07:38.188Z,68.07
2023-01-25T23:10:10.114Z,64.07
2023-01-25T23:12:38.756Z,70.07
2023-01-25T23:15:15.791Z,59.37
2023-01-25T23:18:10.472Z,65.10
2023-01-25T23:20:38.863Z,54.07
2023-01-25T23:23:07.281Z,60.03
2023-01-25T23:25:39.658Z,53.30
2023-01-25T23:28:08.150Z,58.20
2023-01-25T23:30:36.707Z,58.40
2023-01-25T23:33:05.338Z,54.77
2023-01-25T23:35:33.685Z,53.47
2023-01-25T23:38:02.111Z,54.37
2023-01-25T23:40:30.438Z,56.40
2023-01-25T23:43:00.096Z,55.20
2023-01-25T23:45:28.439Z,62.20
2023-01-25T23:47:56.798Z,51.57
2023-01-25T23:50:25.205Z,51.73
2023-01-25T23:52:53.881Z,56.50
2023-01-25T23:55:22.196Z,53.07
2023-01-25T23:57:50.577Z,54.97
